createdAt,value
2019-02-14T00:00:43.364Z,6.40
2019-02-14T00:03:12.471Z,6.40
2019-02-14T00:05:42.337Z,6.40
2019-02-14T00:08:11.401Z,6.40
2019-02-14T00:10:40.425Z,6.30
2019-02-14T00:13:09.275Z,6.20
2019-02-14T00:15:38.300Z,6.20
2019-02-14T00:18:07.237Z,6.20
2019-02-14T00:20:36.197Z,6.20
2019-02-14T00:23:05.202Z,6.20
2019-02-14T00:25:34.229Z,6.20
2019-02-14T00:28:03.181Z,6.10
2019-02-14T00:30:32.198Z,6.10
2019-02-14T00:33:01.134Z,6.10
2019-02-14T00:35:31.907Z,6.10
2019-02-14T00:38:00.837Z,6.10
2019-02-14T00:40:29.795Z,6.10
2019-02-14T00:42:58.662Z,6.00
2019-02-14T00:45:27.538Z,6.00
2019-02-14T00:47:56.537Z,6.00
2019-02-14T00:50:27.458Z,6.00
2019-02-14T00:52:56.385Z,6.10
2019-02-14T00:55:26.365Z,6.00
2019-02-14T00:57:55.294Z,6.00
2019-02-14T01:00:36.496Z,6.00
2019-02-14T01:03:05.401Z,6.00
2019-02-14T01:05:34.461Z,6.00
2019-02-14T01:08:03.397Z,6.00
2019-02-14T01:10:32.720Z,6.00
2019-02-14T01:13:03.341Z,6.00
2019-02-14T01:15:32.544Z,6.00
2019-02-14T01:18:01.506Z,5.90
2019-02-14T01:20:30.711Z,5.90
2019-02-14T01:22:59.649Z,5.90
2019-02-14T01:25:28.539Z,5.90
2019-02-14T01:27:57.500Z,5.80
2019-02-14T01:30:26.513Z,5.80
2019-02-14T01:32:55.856Z,5.80
2019-02-14T01:35:24.917Z,5.70
2019-02-14T01:37:53.881Z,5.60
2019-02-14T01:40:22.762Z,5.60
2019-02-14T01:42:51.701Z,5.70
2019-02-14T01:45:20.921Z,5.70
2019-02-14T01:47:49.926Z,5.70
2019-02-14T01:50:18.939Z,5.80
2019-02-14T01:52:47.889Z,5.80
2019-02-14T01:55:17.190Z,5.80
2019-02-14T01:57:46.071Z,5.80
2019-02-14T02:00:15.809Z,5.80
2019-02-14T02:02:44.830Z,5.80
2019-02-14T02:05:13.880Z,5.70
2019-02-14T02:07:42.892Z,5.70
2019-02-14T02:10:12.689Z,5.70
2019-02-14T02:13:38.459Z,5.70
2019-02-14T02:16:01.135Z,5.70
2019-02-14T02:19:50.170Z,5.70
2019-02-14T02:22:19.218Z,5.70
2019-02-14T02:28:51.042Z,5.60
2019-02-14T02:35:17.486Z,5.70
2019-02-14T02:38:47.103Z,5.70
2019-02-14T02:41:03.881Z,5.70
2019-02-14T02:50:30.522Z,5.60
2019-02-14T02:52:59.618Z,5.60
2019-02-14T02:55:28.633Z,5.50
2019-02-14T02:58:01.319Z,5.50
2019-02-14T03:00:30.419Z,5.40
2019-02-14T03:02:59.461Z,5.30
2019-02-14T03:05:28.643Z,5.30
2019-02-14T03:07:57.578Z,5.40
2019-02-14T03:10:26.849Z,5.40
2019-02-14T03:12:55.822Z,5.40
2019-02-14T03:15:24.765Z,5.40
2019-02-14T03:17:53.707Z,5.40
2019-02-14T03:20:22.677Z,5.40
2019-02-14T03:22:52.913Z,5.50
2019-02-14T03:25:21.965Z,5.40
2019-02-14T03:27:50.849Z,5.40
2019-02-14T03:30:19.816Z,5.40
2019-02-14T03:32:48.774Z,5.50
2019-02-14T03:35:17.885Z,5.40
2019-02-14T03:37:46.890Z,5.40
2019-02-14T03:40:16.049Z,5.40
2019-02-14T03:42:44.936Z,5.40
2019-02-14T03:45:15.890Z,5.40
2019-02-14T03:47:44.846Z,5.40
2019-02-14T03:50:14.900Z,5.30
2019-02-14T03:52:43.852Z,5.30
2019-02-14T03:55:12.918Z,5.20
2019-02-14T03:57:41.867Z,5.20
2019-02-14T04:00:13.354Z,5.10
2019-02-14T04:02:42.374Z,5.10
2019-02-14T04:05:11.692Z,5.10
2019-02-14T04:07:41.499Z,5.00
2019-02-14T04:10:11.642Z,5.10
2019-02-14T04:12:40.720Z,5.10
2019-02-14T04:15:11.839Z,5.10
2019-02-14T04:17:40.782Z,5.20
2019-02-14T04:20:09.860Z,5.20
2019-02-14T04:22:39.058Z,5.20
2019-02-14T04:25:10.073Z,5.10
2019-02-14T04:27:39.112Z,5.20
2019-02-14T04:30:09.335Z,5.20
2019-02-14T04:32:38.365Z,5.20
2019-02-14T04:35:07.581Z,5.20
2019-02-14T04:37:36.582Z,5.20
2019-02-14T04:40:06.741Z,5.20
2019-02-14T04:42:35.791Z,5.20
2019-02-14T04:45:05.122Z,5.20
2019-02-14T04:47:34.154Z,5.20
2019-02-14T04:50:03.185Z,5.20
2019-02-14T04:52:32.297Z,5.20
2019-02-14T04:55:01.168Z,5.20
2019-02-14T04:57:30.049Z,5.20
2019-02-14T04:59:58.978Z,5.20
2019-02-14T05:02:28.010Z,5.20
2019-02-14T05:04:56.933Z,5.10
2019-02-14T05:07:26.700Z,5.10
2019-02-14T05:09:55.648Z,5.00
2019-02-14T05:12:26.207Z,5.00
2019-02-14T05:14:55.249Z,5.00
2019-02-14T05:17:24.189Z,5.00
2019-02-14T05:19:53.141Z,5.00
2019-02-14T05:22:22.019Z,5.00
2019-02-14T05:24:51.014Z,5.00
2019-02-14T05:27:19.881Z,5.00
2019-02-14T05:29:48.770Z,5.00
2019-02-14T05:32:17.804Z,5.00
2019-02-14T05:34:46.844Z,5.00
2019-02-14T05:37:15.757Z,5.00
2019-02-14T05:39:44.623Z,5.00
2019-02-14T05:42:13.633Z,5.00
2019-02-14T05:44:42.506Z,5.00
2019-02-14T05:47:11.538Z,4.90
2019-02-14T05:49:40.521Z,4.90
2019-02-14T05:52:09.610Z,4.80
2019-02-14T05:54:38.527Z,4.80
2019-02-14T05:57:07.505Z,4.80
2019-02-14T05:59:36.547Z,4.80
2019-02-14T06:02:05.584Z,4.90
2019-02-14T06:04:34.546Z,4.90
2019-02-14T06:07:04.230Z,4.90
2019-02-14T06:09:33.128Z,4.90
2019-02-14T06:12:02.813Z,4.90
2019-02-14T06:14:31.835Z,5.00
2019-02-14T06:17:00.858Z,4.90
2019-02-14T06:19:29.778Z,4.90
2019-02-14T06:21:58.805Z,4.90
2019-02-14T06:24:27.807Z,4.80
2019-02-14T06:26:56.768Z,4.80
2019-02-14T06:29:25.960Z,4.80
2019-02-14T06:31:54.967Z,4.80
2019-02-14T06:34:23.937Z,4.80
2019-02-14T06:36:52.848Z,4.80
2019-02-14T06:39:21.821Z,4.90
2019-02-14T06:41:50.737Z,4.90
2019-02-14T06:44:20.534Z,5.00
2019-02-14T06:46:49.510Z,4.90
2019-02-14T06:49:18.439Z,5.00
2019-02-14T06:51:47.410Z,4.90
2019-02-14T06:54:16.425Z,5.00
2019-02-14T06:56:45.381Z,4.90
2019-02-14T06:59:14.586Z,4.90
2019-02-14T07:01:43.596Z,4.90
2019-02-14T07:04:12.736Z,5.00
2019-02-14T07:06:43.046Z,5.00
2019-02-14T07:09:11.981Z,5.00
2019-02-14T07:11:40.983Z,5.00
2019-02-14T07:14:09.940Z,5.10
2019-02-14T07:16:39.055Z,5.10
2019-02-14T07:19:08.009Z,5.10
2019-02-14T07:21:36.988Z,5.10
2019-02-14T07:24:06.065Z,5.10
2019-02-14T07:26:35.153Z,5.10
2019-02-14T07:29:04.184Z,5.10
2019-02-14T07:31:33.772Z,5.20
2019-02-14T07:34:04.040Z,5.20
2019-02-14T07:36:33.224Z,5.20
2019-02-14T07:39:02.220Z,5.20
2019-02-14T07:41:31.181Z,5.20
2019-02-14T07:44:00.201Z,5.30
2019-02-14T07:46:29.255Z,5.30
2019-02-14T07:48:58.238Z,5.30
2019-02-14T07:51:27.332Z,5.30
2019-02-14T07:53:58.860Z,5.30
2019-02-14T07:56:27.749Z,5.30
2019-02-14T07:58:56.689Z,5.40
2019-02-14T08:01:25.762Z,5.40
2019-02-14T08:03:54.646Z,5.40
2019-02-14T08:06:23.590Z,5.30
2019-02-14T08:08:52.478Z,5.40
2019-02-14T08:11:21.516Z,5.40
2019-02-14T08:13:50.438Z,5.40
2019-02-14T08:16:19.513Z,5.40
2019-02-14T08:18:48.519Z,5.40
2019-02-14T08:21:17.578Z,5.50
2019-02-14T08:23:46.544Z,5.40
2019-02-14T08:26:16.469Z,5.40
2019-02-14T08:28:45.637Z,5.40
2019-02-14T08:31:14.693Z,5.50
2019-02-14T08:33:43.962Z,5.50
2019-02-14T08:36:12.971Z,5.50
2019-02-14T08:38:42.485Z,5.60
2019-02-14T08:41:11.554Z,5.60
2019-02-14T08:43:40.498Z,5.70
2019-02-14T08:46:09.620Z,5.80
2019-02-14T08:48:38.585Z,5.80
2019-02-14T08:51:07.669Z,5.90
2019-02-14T08:53:36.659Z,5.90
2019-02-14T08:56:05.837Z,5.90
2019-02-14T08:58:34.877Z,6.00
2019-02-14T09:01:04.386Z,6.00
2019-02-14T09:03:33.396Z,6.00
2019-02-14T09:06:02.522Z,6.10
2019-02-14T09:08:34.021Z,6.10
2019-02-14T09:11:02.973Z,6.00
2019-02-14T09:13:33.377Z,6.10
2019-02-14T09:16:02.273Z,6.10
2019-02-14T09:18:32.031Z,6.10
2019-02-14T09:21:01.025Z,6.20
2019-02-14T09:23:30.359Z,6.20
2019-02-14T09:25:59.394Z,6.20
2019-02-14T09:28:28.449Z,6.20
2019-02-14T09:30:59.096Z,6.30
2019-02-14T09:33:28.041Z,6.30
2019-02-14T09:35:57.013Z,6.30
2019-02-14T09:38:26.031Z,6.30
2019-02-14T09:40:55.121Z,6.40
2019-02-14T09:43:29.607Z,6.40
2019-02-14T09:45:54.711Z,6.50
2019-02-14T09:48:24.565Z,6.60
2019-02-14T09:50:54.017Z,6.60
2019-02-14T09:53:23.041Z,6.60
2019-02-14T09:55:52.006Z,6.70
2019-02-14T09:58:22.638Z,6.70
2019-02-14T10:00:55.450Z,6.80
2019-02-14T10:03:25.053Z,6.80
2019-02-14T10:05:54.074Z,6.80
2019-02-14T10:08:23.160Z,6.90
2019-02-14T10:10:52.136Z,6.90
2019-02-14T10:13:21.137Z,6.90
2019-02-14T10:15:50.072Z,7.00
2019-02-14T10:18:19.025Z,7.10
2019-02-14T10:20:48.159Z,7.10
2019-02-14T10:23:17.334Z,7.10
2019-02-14T10:25:47.252Z,7.20
2019-02-14T10:28:16.958Z,7.20
2019-02-14T10:30:45.960Z,7.30
2019-02-14T10:33:16.417Z,7.30
2019-02-14T10:35:45.387Z,7.40
2019-02-14T10:38:21.936Z,7.50
2019-02-14T10:40:45.263Z,7.50
2019-02-14T10:43:14.290Z,7.50
2019-02-14T10:45:44.058Z,7.60
2019-02-14T10:48:13.288Z,7.60
2019-02-14T10:50:42.309Z,7.70
2019-02-14T10:53:12.351Z,7.70
2019-02-14T10:55:41.461Z,7.80
2019-02-14T10:58:10.537Z,7.80
2019-02-14T11:00:40.075Z,7.90
2019-02-14T11:03:09.105Z,7.90
2019-02-14T11:05:38.142Z,8.00
2019-02-14T11:08:07.110Z,8.00
2019-02-14T11:10:36.207Z,8.00
2019-02-14T11:13:05.268Z,8.10
2019-02-14T11:15:34.689Z,8.20
2019-02-14T11:18:05.040Z,8.20
2019-02-14T11:20:34.409Z,8.30
2019-02-14T11:23:03.446Z,8.30
2019-02-14T11:25:33.349Z,8.30
2019-02-14T11:28:02.301Z,8.40
2019-02-14T11:30:31.322Z,8.40
2019-02-14T11:33:00.210Z,8.50
2019-02-14T11:35:29.843Z,8.60
2019-02-14T11:37:58.813Z,8.70
2019-02-14T11:40:27.869Z,8.70
2019-02-14T11:42:56.917Z,8.80
2019-02-14T11:45:26.306Z,8.90
2019-02-14T11:47:55.258Z,8.90
2019-02-14T11:50:24.299Z,9.00
2019-02-14T11:52:53.279Z,9.00
2019-02-14T11:55:22.154Z,9.00
2019-02-14T11:57:51.585Z,9.10
2019-02-14T12:00:22.043Z,9.10
2019-02-14T12:02:55.575Z,9.10
2019-02-14T12:05:21.828Z,9.20
2019-02-14T12:07:50.923Z,9.30
2019-02-14T12:10:19.944Z,9.30
2019-02-14T12:12:48.864Z,9.30
2019-02-14T12:15:18.678Z,9.40
2019-02-14T12:17:47.640Z,9.40
2019-02-14T12:20:16.735Z,9.50
2019-02-14T12:22:47.036Z,9.50
2019-02-14T12:25:16.499Z,9.60
2019-02-14T12:27:45.434Z,9.60
2019-02-14T12:30:15.172Z,9.60
2019-02-14T12:32:44.126Z,9.70
2019-02-14T12:35:18.046Z,9.80
2019-02-14T12:37:47.764Z,9.80
2019-02-14T12:40:16.785Z,9.80
2019-02-14T12:42:45.857Z,9.90
2019-02-14T12:47:47.193Z,10.00
2019-02-14T12:50:16.256Z,10.00
2019-02-14T12:52:45.217Z,10.10
2019-02-14T12:55:14.243Z,10.20
2019-02-14T12:57:43.203Z,10.20
2019-02-14T13:00:15.832Z,10.20
2019-02-14T13:02:44.904Z,10.20
2019-02-14T13:05:13.847Z,10.30
2019-02-14T13:07:42.854Z,10.30
2019-02-14T13:10:12.409Z,10.30
2019-02-14T13:12:41.437Z,10.40
2019-02-14T13:15:12.801Z,10.40
2019-02-14T13:17:41.876Z,10.50
2019-02-14T13:20:11.191Z,10.50
2019-02-14T13:22:40.199Z,10.50
2019-02-14T13:25:10.514Z,10.50
2019-02-14T13:27:39.546Z,10.50
2019-02-14T13:30:12.869Z,10.50
2019-02-14T13:32:42.025Z,10.50
2019-02-14T13:35:11.080Z,10.50
2019-02-14T13:37:40.583Z,10.50
2019-02-14T13:40:09.858Z,10.50
2019-02-14T13:42:38.908Z,10.50
2019-02-14T13:45:10.449Z,10.50
2019-02-14T13:47:39.413Z,10.50
2019-02-14T13:50:09.442Z,10.50
2019-02-14T13:52:38.494Z,10.50
2019-02-14T13:55:08.373Z,10.50
2019-02-14T13:57:37.412Z,10.50
2019-02-14T14:00:09.639Z,10.60
2019-02-14T14:02:38.531Z,10.60
2019-02-14T14:05:07.561Z,10.60
2019-02-14T14:07:40.470Z,10.60
2019-02-14T14:10:08.306Z,10.60
2019-02-14T14:12:37.349Z,10.60
2019-02-14T14:15:06.709Z,10.60
2019-02-14T14:17:35.762Z,10.60
2019-02-14T14:20:05.038Z,10.70
2019-02-14T14:22:34.377Z,10.70
2019-02-14T14:25:03.424Z,10.70
2019-02-14T14:27:32.413Z,10.70
2019-02-14T14:30:01.508Z,10.70
2019-02-14T14:32:30.669Z,10.70
2019-02-14T14:34:59.613Z,10.70
2019-02-14T14:37:28.539Z,10.70
2019-02-14T14:39:57.498Z,10.70
2019-02-14T14:43:03.673Z,10.70
2019-02-14T14:45:41.254Z,10.70
2019-02-14T14:48:19.326Z,10.70
2019-02-14T14:50:42.306Z,10.70
2019-02-14T14:53:11.262Z,10.70
2019-02-14T14:55:40.357Z,10.70
2019-02-14T14:58:09.373Z,10.70
2019-02-14T15:00:38.376Z,10.70
2019-02-14T15:03:07.330Z,10.70
2019-02-14T15:05:36.322Z,10.70
2019-02-14T15:08:05.296Z,10.70
2019-02-14T15:10:34.236Z,10.60
2019-02-14T15:13:03.826Z,10.60
2019-02-14T15:15:32.981Z,10.70
2019-02-14T15:18:02.025Z,10.70
2019-02-14T15:20:31.133Z,10.60
2019-02-14T15:23:00.259Z,10.60
2019-02-14T15:25:29.426Z,10.60
2019-02-14T15:27:58.652Z,10.60
2019-02-14T15:30:27.749Z,10.60
2019-02-14T15:32:56.809Z,10.60
2019-02-14T15:35:25.771Z,10.60
2019-02-14T15:37:54.829Z,10.60
2019-02-14T15:40:23.936Z,10.50
2019-02-14T15:42:52.923Z,10.50
2019-02-14T15:45:22.047Z,10.50
2019-02-14T15:47:51.018Z,10.40
2019-02-14T15:50:20.066Z,10.40
2019-02-14T15:52:48.968Z,10.40
2019-02-14T15:55:19.438Z,10.40
2019-02-14T15:57:48.814Z,10.40
2019-02-14T16:00:17.877Z,10.40
2019-02-14T16:02:47.873Z,10.30
2019-02-14T16:05:19.071Z,10.30
2019-02-14T16:07:48.124Z,10.30
2019-02-14T16:10:18.769Z,10.30
2019-02-14T16:12:48.165Z,10.30
2019-02-14T16:15:17.476Z,10.30
2019-02-14T16:17:46.721Z,10.20
2019-02-14T16:20:17.530Z,10.20
2019-02-14T16:22:46.581Z,10.20
2019-02-14T16:25:15.501Z,10.10
2019-02-14T16:27:46.405Z,10.10
2019-02-14T16:30:16.580Z,10.00
2019-02-14T16:32:46.050Z,10.00
2019-02-14T16:35:14.989Z,10.00
2019-02-14T16:37:43.901Z,9.90
2019-02-14T16:40:13.015Z,9.80
2019-02-14T16:42:42.179Z,9.80
2019-02-14T16:45:11.205Z,9.70
2019-02-14T16:47:40.299Z,9.70
2019-02-14T16:50:09.415Z,9.60
2019-02-14T16:52:38.573Z,9.60
2019-02-14T16:55:07.726Z,9.50
2019-02-14T16:57:36.677Z,9.40
2019-02-14T17:00:06.862Z,9.40
2019-02-14T17:02:35.789Z,9.30
2019-02-14T17:05:04.909Z,9.30
2019-02-14T17:07:33.834Z,9.30
2019-02-14T17:10:03.024Z,9.20
2019-02-14T17:12:31.907Z,9.10
2019-02-14T17:15:00.904Z,9.10
2019-02-14T17:17:29.905Z,9.00
2019-02-14T17:19:59.936Z,9.00
2019-02-14T17:22:28.886Z,8.90
2019-02-14T17:24:57.990Z,8.90
2019-02-14T17:27:26.870Z,8.80
2019-02-14T17:29:56.013Z,8.80
2019-02-14T17:32:25.058Z,8.70
2019-02-14T17:34:54.082Z,8.70
2019-02-14T17:37:23.179Z,8.60
2019-02-14T17:39:52.920Z,8.60
2019-02-14T17:42:22.152Z,8.60
2019-02-14T17:44:51.365Z,8.60
2019-02-14T17:47:20.446Z,8.50
2019-02-14T17:49:49.473Z,8.20
2019-02-14T17:52:18.830Z,8.40
2019-02-14T17:54:47.769Z,8.40
2019-02-14T17:57:16.811Z,8.40
2019-02-14T17:59:45.807Z,8.40
2019-02-14T18:02:16.286Z,8.30
2019-02-14T18:04:45.285Z,8.30
2019-02-14T18:07:14.326Z,8.30
2019-02-14T18:09:43.357Z,8.20
2019-02-14T18:12:12.725Z,8.20
2019-02-14T18:14:41.793Z,8.20
2019-02-14T18:17:10.829Z,8.10
2019-02-14T18:19:40.102Z,8.10
2019-02-14T18:22:09.060Z,8.00
2019-02-14T18:24:38.188Z,8.00
2019-02-14T18:27:07.304Z,8.00
2019-02-14T18:29:36.499Z,8.00
2019-02-14T18:32:05.624Z,7.90
2019-02-14T18:34:34.786Z,7.90
2019-02-14T18:37:03.978Z,7.90
2019-02-14T18:39:33.147Z,7.90
2019-02-14T18:42:02.924Z,7.80
2019-02-14T18:44:31.936Z,7.80
2019-02-14T18:47:01.062Z,7.80
2019-02-14T18:49:30.281Z,7.80
2019-02-14T18:51:59.476Z,7.70
2019-02-14T18:54:28.588Z,7.80
2019-02-14T18:57:01.206Z,7.70
2019-02-14T18:59:30.412Z,7.70
2019-02-14T19:01:59.657Z,7.70
2019-02-14T19:04:28.925Z,7.70
2019-02-14T19:06:58.146Z,7.70
2019-02-14T19:09:27.847Z,7.60
2019-02-14T19:11:57.142Z,7.60
2019-02-14T19:14:26.353Z,7.60
2019-02-14T19:16:55.904Z,7.60
2019-02-14T19:19:28.145Z,7.50
2019-02-14T19:21:57.166Z,7.50
2019-02-14T19:24:26.493Z,7.50
2019-02-14T19:26:55.406Z,7.50
2019-02-14T19:29:24.707Z,7.50
2019-02-14T19:31:53.889Z,7.40
2019-02-14T19:34:23.013Z,7.40
2019-02-14T19:36:52.151Z,7.40
2019-02-14T19:39:21.163Z,7.40
2019-02-14T19:41:50.113Z,7.40
2019-02-14T19:44:19.110Z,7.30
2019-02-14T19:46:49.990Z,7.30
2019-02-14T19:49:18.745Z,7.30
2019-02-14T19:51:47.726Z,7.30
2019-02-14T19:54:16.675Z,7.20
2019-02-14T19:56:45.669Z,7.20
2019-02-14T19:59:14.624Z,7.20
2019-02-14T20:01:43.693Z,7.20
2019-02-14T20:04:14.241Z,7.20
2019-02-14T20:06:43.181Z,7.10
2019-02-14T20:09:12.208Z,7.10
2019-02-14T20:11:41.070Z,7.10
2019-02-14T20:14:10.250Z,7.10
2019-02-14T20:16:39.646Z,7.10
2019-02-14T20:19:08.648Z,7.10
2019-02-14T20:21:37.541Z,7.10
2019-02-14T20:24:06.605Z,7.10
2019-02-14T20:26:35.730Z,7.10
2019-02-14T20:29:06.678Z,7.00
2019-02-14T20:31:36.946Z,7.00
2019-02-14T20:34:06.106Z,7.00
2019-02-14T20:36:35.483Z,7.00
2019-02-14T20:39:05.338Z,7.00
2019-02-14T20:41:34.718Z,6.90
2019-02-14T20:44:03.842Z,7.00
2019-02-14T20:46:33.438Z,6.90
2019-02-14T20:49:02.417Z,7.00
2019-02-14T20:51:38.353Z,6.90
2019-02-14T20:54:02.189Z,6.90
2019-02-14T20:56:31.938Z,6.90
2019-02-14T20:59:00.980Z,6.90
2019-02-14T21:01:30.016Z,6.90
2019-02-14T21:03:59.055Z,6.90
2019-02-14T21:06:29.922Z,6.90
2019-02-14T21:08:59.723Z,6.90
2019-02-14T21:11:28.824Z,6.80
2019-02-14T21:13:57.721Z,6.80
2019-02-14T21:16:26.744Z,6.80
2019-02-14T21:18:55.809Z,6.80
2019-02-14T21:21:25.150Z,6.80
2019-02-14T21:23:54.379Z,6.70
2019-02-14T21:26:23.333Z,6.70
2019-02-14T21:28:52.363Z,6.70
2019-02-14T21:31:21.502Z,6.60
2019-02-14T21:33:50.561Z,6.60
2019-02-14T21:36:20.460Z,6.60
2019-02-14T21:38:49.487Z,6.60
2019-02-14T21:41:18.504Z,6.50
2019-02-14T21:43:47.425Z,6.50
2019-02-14T21:46:16.840Z,6.50
2019-02-14T21:48:46.334Z,6.40
2019-02-14T21:51:15.427Z,6.40
2019-02-14T21:53:51.589Z,6.40
2019-02-14T21:56:20.547Z,6.40
2019-02-14T21:58:49.686Z,6.40
2019-02-14T22:01:24.414Z,6.30
2019-02-14T22:03:53.452Z,6.30
2019-02-14T22:06:22.537Z,6.30
2019-02-14T22:08:51.703Z,6.30
2019-02-14T22:11:20.851Z,6.20
2019-02-14T22:13:50.121Z,6.20
2019-02-14T22:16:19.078Z,6.20
2019-02-14T22:18:48.176Z,6.20
2019-02-14T22:21:17.281Z,6.20
2019-02-14T22:23:46.334Z,6.20
2019-02-14T22:26:15.417Z,6.20
2019-02-14T22:28:44.875Z,6.10
2019-02-14T22:31:13.890Z,6.10
2019-02-14T22:33:42.909Z,6.10
2019-02-14T22:36:11.999Z,6.10
2019-02-14T22:38:40.893Z,6.10
2019-02-14T22:41:09.918Z,6.10
2019-02-14T22:43:38.800Z,6.00
2019-02-14T22:46:07.756Z,6.00
2019-02-14T22:48:36.831Z,6.00
2019-02-14T22:51:05.721Z,6.00
2019-02-14T22:53:34.658Z,6.00
2019-02-14T22:56:03.638Z,6.00
2019-02-14T22:58:32.646Z,5.90
2019-02-14T23:01:01.733Z,5.90
2019-02-14T23:03:30.691Z,5.90
2019-02-14T23:05:59.730Z,5.90
2019-02-14T23:08:28.753Z,5.90
2019-02-14T23:10:57.921Z,5.90
2019-02-14T23:13:27.045Z,5.80
2019-02-14T23:15:56.005Z,5.80
2019-02-14T23:18:25.728Z,5.80
2019-02-14T23:20:54.623Z,5.80
2019-02-14T23:23:23.577Z,5.80
2019-02-14T23:25:52.449Z,5.80
2019-02-14T23:28:21.710Z,5.70
2019-02-14T23:30:50.820Z,5.70
2019-02-14T23:33:19.759Z,5.70
2019-02-14T23:35:48.714Z,5.70
2019-02-14T23:38:17.671Z,5.70
2019-02-14T23:40:46.627Z,5.60
2019-02-14T23:43:15.772Z,5.60
2019-02-14T23:45:44.799Z,5.60
2019-02-14T23:48:13.810Z,5.60
2019-02-14T23:50:42.829Z,5.60
2019-02-14T23:53:12.037Z,5.60
2019-02-14T23:55:40.973Z,5.50
2019-02-14T23:58:09.881Z,5.50
